createdAt,value
2018-09-19T00:00:09.753Z,19.50
2018-09-19T00:02:40.196Z,19.50
2018-09-19T00:05:09.742Z,19.40
2018-09-19T00:07:38.398Z,19.50
2018-09-19T00:10:07.246Z,19.50
2018-09-19T00:12:35.899Z,19.50
2018-09-19T00:15:04.755Z,19.40
2018-09-19T00:17:34.502Z,19.40
2018-09-19T00:20:03.211Z,19.40
2018-09-19T00:22:32.939Z,19.30
2018-09-19T00:25:02.612Z,19.30
2018-09-19T00:27:31.424Z,19.30
2018-09-19T00:30:00.710Z,19.10
2018-09-19T00:32:31.520Z,19.30
2018-09-19T00:35:00.847Z,19.30
2018-09-19T00:37:29.492Z,19.20
2018-09-19T00:40:00.272Z,19.20
2018-09-19T00:42:28.967Z,19.20
2018-09-19T00:44:59.156Z,19.10
2018-09-19T00:47:27.809Z,19.10
2018-09-19T00:49:56.949Z,19.00
2018-09-19T00:52:25.662Z,19.00
2018-09-19T00:54:56.432Z,18.90
2018-09-19T00:57:25.117Z,18.90
2018-09-19T00:59:56.333Z,18.90
2018-09-19T01:02:33.622Z,18.90
2018-09-19T01:05:02.456Z,18.90
2018-09-19T01:07:31.932Z,18.80
2018-09-19T01:10:00.628Z,18.80
2018-09-19T01:12:29.286Z,18.80
2018-09-19T01:14:58.772Z,18.90
2018-09-19T01:17:29.184Z,18.90
2018-09-19T01:19:57.864Z,18.80
2018-09-19T01:22:26.622Z,18.90
2018-09-19T01:24:55.351Z,18.80
2018-09-19T01:27:24.021Z,18.80
2018-09-19T01:29:53.879Z,18.80
2018-09-19T01:32:22.887Z,18.70
2018-09-19T01:34:53.320Z,18.70
2018-09-19T01:37:22.004Z,18.70
2018-09-19T01:39:53.451Z,18.60
2018-09-19T01:42:22.164Z,18.70
2018-09-19T01:44:52.066Z,18.70
2018-09-19T01:47:20.715Z,18.80
2018-09-19T01:49:49.399Z,18.80
2018-09-19T01:52:18.205Z,18.80
2018-09-19T01:54:46.903Z,18.80
2018-09-19T01:57:15.656Z,18.80
2018-09-19T01:59:45.289Z,18.70
2018-09-19T02:02:13.974Z,18.60
2018-09-19T02:04:42.647Z,18.60
2018-09-19T02:07:11.451Z,18.60
2018-09-19T02:09:40.101Z,18.60
2018-09-19T02:12:08.776Z,18.60
2018-09-19T02:14:37.439Z,18.60
2018-09-19T02:17:06.101Z,18.50
2018-09-19T02:19:34.805Z,18.50
2018-09-19T02:22:04.060Z,18.50
2018-09-19T02:24:32.774Z,18.50
2018-09-19T02:27:01.566Z,18.40
2018-09-19T02:29:30.468Z,18.50
2018-09-19T02:31:59.126Z,18.40
2018-09-19T02:34:27.909Z,18.40
2018-09-19T02:36:56.568Z,18.40
2018-09-19T02:39:25.257Z,18.30
2018-09-19T02:41:53.964Z,18.30
2018-09-19T02:44:22.695Z,18.20
2018-09-19T02:46:51.421Z,18.20
2018-09-19T02:49:20.101Z,18.20
2018-09-19T02:51:48.739Z,18.20
2018-09-19T02:54:17.405Z,18.20
2018-09-19T02:56:46.099Z,18.20
2018-09-19T02:59:14.763Z,18.20
2018-09-19T03:01:43.474Z,18.20
2018-09-19T03:04:12.145Z,18.20
2018-09-19T03:06:40.824Z,18.10
2018-09-19T03:09:09.495Z,18.10
2018-09-19T03:11:38.930Z,18.00
2018-09-19T03:14:07.757Z,18.10
2018-09-19T03:16:36.418Z,18.10
2018-09-19T03:19:05.084Z,18.10
2018-09-19T03:21:33.908Z,18.10
2018-09-19T03:24:02.559Z,18.00
2018-09-19T03:26:32.493Z,18.10
2018-09-19T03:29:01.244Z,18.10
2018-09-19T03:31:29.934Z,18.00
2018-09-19T03:33:58.921Z,18.00
2018-09-19T03:36:27.583Z,17.90
2018-09-19T03:38:56.383Z,17.90
2018-09-19T03:41:25.036Z,17.90
2018-09-19T03:43:53.796Z,17.90
2018-09-19T03:46:22.458Z,17.90
2018-09-19T03:48:51.106Z,17.80
2018-09-19T03:51:19.836Z,17.80
2018-09-19T03:53:48.554Z,17.80
2018-09-19T03:56:17.194Z,17.80
2018-09-19T03:58:55.651Z,17.70
2018-09-19T04:01:27.189Z,17.70
2018-09-19T04:03:55.886Z,17.70
2018-09-19T04:06:26.776Z,17.60
2018-09-19T04:08:55.427Z,17.50
2018-09-19T04:11:24.079Z,17.50
2018-09-19T04:13:53.180Z,17.50
2018-09-19T04:16:21.895Z,17.50
2018-09-19T04:18:50.550Z,17.40
2018-09-19T04:21:19.210Z,17.50
2018-09-19T04:23:47.815Z,17.50
2018-09-19T04:26:16.463Z,17.60
2018-09-19T04:28:45.088Z,17.60
2018-09-19T04:31:13.780Z,17.50
2018-09-19T04:33:42.469Z,17.50
2018-09-19T04:36:11.108Z,17.50
2018-09-19T04:38:39.749Z,17.40
2018-09-19T04:41:08.400Z,17.40
2018-09-19T04:43:37.037Z,17.30
2018-09-19T04:46:05.682Z,17.30
2018-09-19T04:48:34.317Z,17.30
2018-09-19T04:51:02.928Z,17.30
2018-09-19T04:53:31.581Z,17.30
2018-09-19T04:56:00.208Z,17.30
2018-09-19T04:58:28.817Z,17.20
2018-09-19T05:00:57.437Z,17.20
2018-09-19T05:03:26.099Z,17.20
2018-09-19T05:05:54.778Z,17.20
2018-09-19T05:08:23.410Z,17.10
2018-09-19T05:10:52.033Z,17.10
2018-09-19T05:13:20.676Z,17.00
2018-09-19T05:15:49.328Z,17.00
2018-09-19T05:18:17.950Z,17.10
2018-09-19T05:20:46.580Z,17.00
2018-09-19T05:23:15.204Z,17.10
2018-09-19T05:25:43.807Z,17.00
2018-09-19T05:28:12.436Z,17.00
2018-09-19T05:30:41.062Z,17.00
2018-09-19T05:33:09.697Z,16.90
2018-09-19T05:35:38.322Z,16.90
2018-09-19T05:38:07.003Z,16.90
2018-09-19T05:40:35.640Z,17.00
2018-09-19T05:43:04.287Z,17.10
2018-09-19T05:45:32.923Z,17.00
2018-09-19T05:48:01.552Z,17.00
2018-09-19T05:50:30.177Z,17.00
2018-09-19T05:52:58.852Z,17.00
2018-09-19T05:55:27.470Z,17.10
2018-09-19T05:57:56.097Z,17.00
2018-09-19T06:00:24.758Z,17.00
2018-09-19T06:02:53.385Z,17.00
2018-09-19T06:05:22.037Z,17.00
2018-09-19T06:07:50.661Z,17.00
2018-09-19T06:10:19.345Z,17.10
2018-09-19T06:12:47.990Z,17.10
2018-09-19T06:15:16.663Z,17.10
2018-09-19T06:17:45.390Z,17.10
2018-09-19T06:20:14.046Z,17.10
2018-09-19T06:22:42.674Z,17.10
2018-09-19T06:25:11.317Z,17.20
2018-09-19T06:27:39.976Z,17.30
2018-09-19T06:30:08.606Z,17.50
2018-09-19T06:32:37.260Z,17.60
2018-09-19T06:35:06.240Z,17.70
2018-09-19T06:37:34.872Z,17.90
2018-09-19T06:40:03.673Z,18.10
2018-09-19T06:42:32.270Z,18.40
2018-09-19T06:45:00.892Z,18.70
2018-09-19T06:47:29.507Z,18.90
2018-09-19T06:49:58.148Z,19.20
2018-09-19T06:52:26.786Z,19.30
2018-09-19T06:54:55.444Z,19.40
2018-09-19T06:57:24.120Z,19.60
2018-09-19T06:59:52.899Z,19.70
2018-09-19T07:02:21.531Z,19.80
2018-09-19T07:04:50.293Z,20.00
2018-09-19T07:07:18.926Z,20.10
2018-09-19T07:09:47.561Z,20.30
2018-09-19T07:12:16.196Z,20.40
2018-09-19T07:14:45.244Z,20.50
2018-09-19T07:17:13.981Z,20.70
2018-09-19T07:19:42.607Z,20.80
2018-09-19T07:22:12.451Z,21.00
2018-09-19T07:24:41.127Z,21.30
2018-09-19T07:27:09.784Z,21.50
2018-09-19T07:29:38.450Z,21.70
2018-09-19T07:32:07.584Z,21.90
2018-09-19T07:34:36.293Z,22.10
2018-09-19T07:37:04.967Z,22.20
2018-09-19T07:39:33.631Z,22.40
2018-09-19T07:42:02.331Z,22.60
2018-09-19T07:44:31.044Z,22.80
2018-09-19T07:47:02.389Z,23.00
2018-09-19T07:49:31.057Z,23.10
2018-09-19T07:51:59.743Z,23.30
2018-09-19T07:54:28.433Z,23.50
2018-09-19T07:56:58.841Z,23.70
2018-09-19T07:59:28.246Z,23.80
2018-09-19T08:01:58.786Z,24.00
2018-09-19T08:04:29.669Z,24.20
2018-09-19T08:07:03.218Z,24.30
2018-09-19T08:09:33.863Z,24.40
2018-09-19T08:14:46.177Z,24.80
2018-09-19T08:17:17.925Z,24.90
2018-09-19T08:19:48.141Z,25.10
2018-09-19T08:22:23.415Z,25.30
2018-09-19T08:25:04.568Z,25.40
2018-09-19T08:27:37.179Z,25.60
2018-09-19T08:30:06.693Z,25.90
2018-09-19T08:32:39.685Z,26.20
2018-09-19T08:35:12.424Z,26.40
2018-09-19T08:37:42.777Z,26.70
2018-09-19T08:40:17.666Z,26.90
2018-09-19T08:42:50.182Z,27.10
2018-09-19T08:48:04.892Z,27.40
2018-09-19T08:50:42.989Z,27.50
2018-09-19T08:53:20.053Z,27.70
2018-09-19T08:55:57.443Z,27.80
2018-09-19T08:58:26.326Z,27.90
2018-09-19T09:01:06.952Z,28.10
2018-09-19T09:03:35.808Z,28.20
2018-09-19T09:06:05.716Z,28.30
2018-09-19T09:08:35.627Z,28.30
2018-09-19T09:11:04.912Z,28.40
2018-09-19T09:13:33.737Z,28.30
2018-09-19T09:16:02.358Z,28.30
2018-09-19T09:18:31.017Z,28.30
2018-09-19T09:20:59.717Z,28.20
2018-09-19T09:23:28.399Z,28.30
2018-09-19T09:25:57.676Z,28.30
2018-09-19T09:28:26.307Z,28.30
2018-09-19T09:30:54.967Z,28.30
2018-09-19T09:33:23.636Z,28.50
2018-09-19T09:35:52.331Z,28.60
2018-09-19T09:38:21.361Z,28.70
2018-09-19T09:40:50.614Z,28.70
2018-09-19T09:43:19.322Z,28.80
2018-09-19T09:45:51.076Z,28.90
2018-09-19T09:48:19.775Z,29.10
2018-09-19T09:50:48.452Z,29.30
2018-09-19T09:53:17.152Z,29.40
2018-09-19T09:55:45.818Z,29.60
2018-09-19T09:58:14.476Z,29.90
2018-09-19T10:00:43.435Z,30.10
2018-09-19T10:03:12.796Z,30.30
2018-09-19T10:05:41.693Z,30.60
2018-09-19T10:08:10.368Z,30.70
2018-09-19T10:10:39.285Z,30.90
2018-09-19T10:13:07.911Z,31.20
2018-09-19T10:15:36.581Z,31.20
2018-09-19T10:18:05.339Z,31.40
2018-09-19T10:20:34.060Z,31.70
2018-09-19T10:23:02.705Z,31.90
2018-09-19T10:25:31.400Z,32.00
2018-09-19T10:28:00.060Z,32.10
2018-09-19T10:30:29.725Z,32.20
2018-09-19T10:32:58.372Z,32.30
2018-09-19T10:35:27.098Z,32.30
2018-09-19T10:37:55.730Z,32.50
2018-09-19T10:40:24.400Z,32.40
2018-09-19T10:42:53.075Z,32.50
2018-09-19T10:45:21.694Z,32.50
2018-09-19T10:47:50.344Z,32.50
2018-09-19T10:50:18.997Z,32.60
2018-09-19T10:52:47.668Z,32.80
2018-09-19T10:55:16.325Z,32.80
2018-09-19T10:57:44.964Z,32.80
2018-09-19T11:00:14.011Z,33.00
2018-09-19T11:02:42.993Z,33.20
2018-09-19T11:05:13.011Z,33.20
2018-09-19T11:07:41.681Z,33.20
2018-09-19T11:10:10.427Z,33.40
2018-09-19T11:12:39.126Z,33.50
2018-09-19T11:15:07.772Z,33.60
2018-09-19T11:17:36.443Z,33.60
2018-09-19T11:20:05.288Z,33.60
2018-09-19T11:22:33.980Z,33.60
2018-09-19T11:25:02.621Z,33.60
2018-09-19T11:27:31.273Z,33.70
2018-09-19T11:29:59.928Z,33.70
2018-09-19T11:32:28.589Z,33.70
2018-09-19T11:34:57.248Z,33.80
2018-09-19T11:37:25.876Z,33.80
2018-09-19T11:39:54.510Z,33.80
2018-09-19T11:42:23.192Z,33.80
2018-09-19T11:44:51.851Z,33.70
2018-09-19T11:47:20.480Z,33.70
2018-09-19T11:49:49.096Z,33.60
2018-09-19T11:52:17.829Z,33.70
2018-09-19T11:54:46.525Z,33.70
2018-09-19T11:57:15.185Z,33.50
2018-09-19T11:59:43.857Z,33.40
2018-09-19T12:02:12.632Z,33.40
2018-09-19T12:04:41.312Z,33.20
2018-09-19T12:07:10.143Z,33.10
2018-09-19T12:09:38.786Z,33.10
2018-09-19T12:12:07.574Z,33.20
2018-09-19T12:14:36.206Z,33.20
2018-09-19T12:17:04.905Z,33.30
2018-09-19T12:19:33.629Z,33.40
2018-09-19T12:22:02.281Z,33.40
2018-09-19T12:24:30.907Z,33.40
2018-09-19T12:26:59.576Z,33.40
2018-09-19T12:29:28.261Z,33.40
2018-09-19T12:31:56.916Z,33.50
2018-09-19T12:34:25.589Z,33.50
2018-09-19T12:36:54.253Z,33.60
2018-09-19T12:39:22.920Z,33.60
2018-09-19T12:41:51.577Z,33.40
2018-09-19T12:44:20.225Z,33.40
2018-09-19T12:46:48.863Z,33.40
2018-09-19T12:49:17.628Z,33.40
2018-09-19T12:51:46.282Z,33.50
2018-09-19T12:54:14.920Z,33.60
2018-09-19T12:56:43.758Z,33.60
2018-09-19T12:59:12.518Z,33.60
2018-09-19T13:01:41.185Z,33.60
2018-09-19T13:04:09.836Z,33.70
2018-09-19T13:06:38.498Z,33.80
2018-09-19T13:09:09.722Z,34.00
2018-09-19T13:11:38.581Z,34.10
2018-09-19T13:14:07.384Z,34.10
2018-09-19T13:16:36.048Z,34.20
2018-09-19T13:19:04.706Z,34.30
2018-09-19T13:21:33.340Z,34.30
2018-09-19T13:24:02.033Z,34.30
2018-09-19T13:26:30.730Z,34.20
2018-09-19T13:28:59.416Z,34.30
2018-09-19T13:31:28.303Z,34.20
2018-09-19T13:33:56.951Z,34.20
2018-09-19T13:36:25.604Z,34.20
2018-09-19T13:38:54.257Z,34.20
2018-09-19T13:41:22.896Z,34.10
2018-09-19T13:43:51.580Z,34.00
2018-09-19T13:46:20.344Z,33.90
2018-09-19T13:48:53.255Z,33.90
2018-09-19T13:51:23.709Z,33.80
2018-09-19T13:53:52.521Z,33.80
2018-09-19T13:56:21.603Z,33.80
2018-09-19T13:58:50.281Z,33.80
2018-09-19T14:01:19.024Z,33.50
2018-09-19T14:03:47.676Z,33.50
2018-09-19T14:06:16.485Z,33.40
2018-09-19T14:08:45.228Z,33.40
2018-09-19T14:11:13.867Z,33.40
2018-09-19T14:13:42.501Z,33.40
2018-09-19T14:16:11.217Z,33.40
2018-09-19T14:18:39.856Z,33.30
2018-09-19T14:21:08.553Z,33.20
2018-09-19T14:23:37.215Z,33.10
2018-09-19T14:26:05.880Z,32.90
2018-09-19T14:28:34.553Z,32.90
2018-09-19T14:31:03.205Z,32.80
2018-09-19T14:33:31.989Z,32.80
2018-09-19T14:36:00.682Z,32.70
2018-09-19T14:38:29.459Z,32.70
2018-09-19T14:40:58.104Z,32.60
2018-09-19T14:43:26.764Z,32.60
2018-09-19T14:45:55.408Z,32.60
2018-09-19T14:48:24.146Z,32.50
2018-09-19T14:50:52.784Z,32.50
2018-09-19T14:53:21.428Z,32.40
2018-09-19T14:55:50.105Z,32.40
2018-09-19T14:58:19.073Z,32.40
2018-09-19T15:00:47.689Z,32.40
2018-09-19T15:03:16.361Z,32.40
2018-09-19T15:05:45.000Z,32.40
2018-09-19T15:08:13.626Z,32.30
2018-09-19T15:10:42.285Z,32.30
2018-09-19T15:13:10.942Z,32.10
2018-09-19T15:15:39.752Z,32.10
2018-09-19T15:18:08.432Z,32.10
2018-09-19T15:20:37.068Z,32.00
2018-09-19T15:23:05.735Z,31.90
2018-09-19T15:25:34.408Z,31.80
2018-09-19T15:28:03.024Z,31.70
2018-09-19T15:30:31.733Z,31.70
2018-09-19T15:33:00.604Z,31.60
2018-09-19T15:35:29.236Z,31.60
2018-09-19T15:37:57.881Z,31.60
2018-09-19T15:40:26.508Z,31.50
2018-09-19T15:42:55.182Z,31.40
2018-09-19T15:45:23.816Z,31.40
2018-09-19T15:47:52.440Z,31.30
2018-09-19T15:50:21.084Z,31.30
2018-09-19T15:52:49.753Z,31.10
2018-09-19T15:55:18.408Z,31.10
2018-09-19T15:57:47.123Z,31.00
2018-09-19T16:00:16.848Z,31.00
2018-09-19T16:02:45.535Z,30.90
2018-09-19T16:05:14.173Z,30.90
2018-09-19T16:07:42.953Z,30.80
2018-09-19T16:10:11.600Z,30.80
2018-09-19T16:12:40.252Z,30.80
2018-09-19T16:15:08.885Z,30.70
2018-09-19T16:17:37.539Z,30.60
2018-09-19T16:20:06.192Z,30.50
2018-09-19T16:22:34.846Z,30.40
2018-09-19T16:25:03.538Z,30.30
2018-09-19T16:27:32.202Z,30.30
2018-09-19T16:30:00.868Z,30.20
2018-09-19T16:32:29.572Z,30.10
2018-09-19T16:34:58.222Z,30.10
2018-09-19T16:37:26.857Z,30.10
2018-09-19T16:39:55.488Z,30.00
2018-09-19T16:42:24.147Z,29.90
2018-09-19T16:44:53.305Z,29.90
2018-09-19T16:47:22.177Z,29.80
2018-09-19T16:49:50.945Z,29.70
2018-09-19T16:52:19.630Z,29.60
2018-09-19T16:54:48.280Z,29.60
2018-09-19T16:57:16.929Z,29.50
2018-09-19T16:59:45.553Z,29.40
2018-09-19T17:02:14.204Z,29.40
2018-09-19T17:04:42.924Z,29.40
2018-09-19T17:07:11.629Z,29.30
2018-09-19T17:09:40.294Z,29.20
2018-09-19T17:12:09.011Z,29.20
2018-09-19T17:14:37.649Z,29.10
2018-09-19T17:17:06.312Z,29.00
2018-09-19T17:19:34.951Z,28.90
2018-09-19T17:22:03.588Z,28.90
2018-09-19T17:24:32.250Z,28.80
2018-09-19T17:27:00.885Z,28.70
2018-09-19T17:29:29.558Z,28.60
2018-09-19T17:31:58.352Z,28.60
2018-09-19T17:34:26.986Z,28.50
2018-09-19T17:36:55.612Z,28.40
2018-09-19T17:39:24.279Z,28.40
2018-09-19T17:41:52.953Z,28.30
2018-09-19T17:44:21.620Z,28.20
2018-09-19T17:46:50.297Z,28.20
2018-09-19T17:49:18.983Z,28.10
2018-09-19T17:51:47.718Z,28.00
2018-09-19T17:54:16.388Z,27.90
2018-09-19T17:56:45.086Z,27.80
2018-09-19T17:59:13.760Z,27.80
2018-09-19T18:01:46.225Z,27.70
2018-09-19T18:04:14.878Z,27.60
2018-09-19T18:06:43.488Z,27.70
2018-09-19T18:09:12.116Z,27.40
2018-09-19T18:11:41.181Z,27.30
2018-09-19T18:14:09.796Z,27.30
2018-09-19T18:16:38.429Z,27.20
2018-09-19T18:19:07.053Z,27.10
2018-09-19T18:21:35.697Z,27.10
2018-09-19T18:24:04.340Z,27.00
2018-09-19T18:26:32.957Z,26.90
2018-09-19T18:29:01.577Z,26.80
2018-09-19T18:31:30.260Z,26.70
2018-09-19T18:33:58.920Z,26.70
2018-09-19T18:36:27.548Z,26.50
2018-09-19T18:38:56.200Z,26.50
2018-09-19T18:41:24.834Z,26.40
2018-09-19T18:43:53.459Z,26.40
2018-09-19T18:46:22.111Z,26.30
2018-09-19T18:48:50.729Z,26.20
2018-09-19T18:51:19.379Z,26.20
2018-09-19T18:53:48.008Z,26.20
2018-09-19T18:56:16.648Z,26.10
2018-09-19T18:58:45.344Z,26.20
2018-09-19T19:01:13.980Z,26.10
2018-09-19T19:03:42.623Z,26.10
2018-09-19T19:06:11.256Z,26.10
2018-09-19T19:08:39.913Z,26.10
2018-09-19T19:11:08.796Z,26.00
2018-09-19T19:13:37.441Z,26.00
2018-09-19T19:16:06.096Z,26.00
2018-09-19T19:18:34.769Z,26.00
2018-09-19T19:21:03.382Z,25.90
2018-09-19T19:23:32.008Z,25.90
2018-09-19T19:26:00.687Z,25.90
2018-09-19T19:28:29.349Z,25.80
2018-09-19T19:30:57.980Z,25.80
2018-09-19T19:33:26.609Z,25.70
2018-09-19T19:35:55.258Z,25.70
2018-09-19T19:38:23.909Z,25.60
2018-09-19T19:40:52.560Z,25.60
2018-09-19T19:43:21.188Z,25.50
2018-09-19T19:45:49.812Z,25.40
2018-09-19T19:48:18.440Z,25.40
2018-09-19T19:50:47.055Z,25.20
2018-09-19T19:53:15.756Z,25.10
2018-09-19T19:55:44.342Z,25.00
2018-09-19T19:58:12.960Z,24.90
2018-09-19T20:00:41.628Z,24.80
2018-09-19T20:03:10.283Z,24.70
2018-09-19T20:05:38.901Z,24.60
2018-09-19T20:08:07.597Z,24.60
2018-09-19T20:10:36.566Z,24.50
2018-09-19T20:13:05.672Z,24.40
2018-09-19T20:15:34.360Z,24.30
2018-09-19T20:18:03.015Z,24.20
2018-09-19T20:20:31.621Z,24.10
2018-09-19T20:23:00.245Z,24.00
2018-09-19T20:25:28.870Z,24.00
2018-09-19T20:27:57.488Z,24.00
2018-09-19T20:30:26.092Z,23.90
2018-09-19T20:32:54.704Z,23.90
2018-09-19T20:35:23.321Z,23.80
2018-09-19T20:37:52.164Z,23.70
2018-09-19T20:40:20.786Z,23.60
2018-09-19T20:42:49.441Z,23.50
2018-09-19T20:45:18.148Z,23.50
2018-09-19T20:47:46.832Z,23.50
2018-09-19T20:50:15.502Z,23.50
2018-09-19T20:52:44.133Z,23.50
2018-09-19T20:55:12.772Z,23.40
2018-09-19T20:57:41.392Z,23.30
2018-09-19T21:00:10.041Z,23.20
2018-09-19T21:02:38.652Z,23.20
2018-09-19T21:05:24.970Z,23.10
2018-09-19T21:07:58.163Z,23.10
2018-09-19T21:10:27.673Z,23.10
2018-09-19T21:12:59.117Z,23.00
2018-09-19T21:15:28.357Z,23.00
2018-09-19T21:17:57.035Z,22.90
2018-09-19T21:20:25.727Z,22.80
2018-09-19T21:22:54.393Z,22.80
2018-09-19T21:25:23.057Z,22.70
2018-09-19T21:27:51.696Z,22.70
2018-09-19T21:30:20.358Z,22.60
2018-09-19T21:32:49.000Z,22.60
2018-09-19T21:35:17.661Z,22.50
2018-09-19T21:37:46.317Z,22.40
2018-09-19T21:40:15.017Z,22.30
2018-09-19T21:42:43.672Z,22.30
2018-09-19T21:45:12.310Z,22.30
2018-09-19T21:47:40.978Z,22.30
2018-09-19T21:50:09.640Z,22.30
2018-09-19T21:52:38.316Z,22.20
2018-09-19T21:55:06.993Z,22.20
2018-09-19T21:57:35.645Z,22.10
2018-09-19T22:00:05.293Z,22.10
2018-09-19T22:02:33.977Z,22.00
2018-09-19T22:05:02.641Z,21.90
2018-09-19T22:07:31.957Z,21.90
2018-09-19T22:10:00.623Z,21.80
2018-09-19T22:12:29.297Z,21.70
2018-09-19T22:14:57.980Z,21.70
2018-09-19T22:17:26.641Z,21.70
2018-09-19T22:19:55.323Z,21.60
2018-09-19T22:22:23.965Z,21.70
2018-09-19T22:24:52.634Z,21.70
2018-09-19T22:27:21.305Z,21.70
2018-09-19T22:29:49.994Z,21.60
2018-09-19T22:32:18.644Z,21.50
2018-09-19T22:34:47.327Z,21.50
2018-09-19T22:37:16.012Z,21.50
2018-09-19T22:39:44.842Z,21.40
2018-09-19T22:42:13.500Z,21.30
2018-09-19T22:44:42.192Z,21.20
2018-09-19T22:47:10.896Z,21.10
2018-09-19T22:49:39.570Z,21.10
2018-09-19T22:52:08.261Z,21.00
2018-09-19T22:54:36.968Z,20.90
2018-09-19T22:57:05.717Z,20.90
2018-09-19T22:59:34.424Z,20.80
2018-09-19T23:02:03.101Z,20.80
2018-09-19T23:05:00.901Z,20.80
2018-09-19T23:07:58.728Z,20.80
2018-09-19T23:10:27.471Z,20.80
2018-09-19T23:12:56.156Z,20.80
2018-09-19T23:15:24.857Z,20.60
2018-09-19T23:17:53.521Z,20.60
2018-09-19T23:20:22.237Z,20.50
2018-09-19T23:22:50.915Z,20.50
2018-09-19T23:25:19.582Z,20.40
2018-09-19T23:27:48.256Z,20.30
2018-09-19T23:30:16.929Z,20.30
2018-09-19T23:32:45.643Z,20.20
2018-09-19T23:35:14.297Z,20.20
2018-09-19T23:37:42.965Z,20.20
2018-09-19T23:40:11.645Z,20.10
2018-09-19T23:42:40.275Z,20.10
2018-09-19T23:45:08.972Z,20.10
2018-09-19T23:47:37.639Z,20.00
2018-09-19T23:50:06.449Z,20.00
2018-09-19T23:52:35.138Z,20.10
2018-09-19T23:55:03.855Z,20.10
2018-09-19T23:57:32.554Z,20.00
